METAR Data
IDs: Format: Raw Decoded Include TAF

Data at: 2032 UTC 08 Feb 2023

Region: TOP
KATL 081952Z 15006KT 10SM FEW039 SCT075 BKN200 BKN250 22/12 A3022 RMK AO2 SLP228 T02220117

KBOS 081954Z 30013KT 10SM FEW046 09/M04 A3010 RMK AO2 SLP193 T00891044

KBWI 081954Z 29012KT 10SM BKN200 BKN250 18/M04 A3021 RMK AO2 SLP230 T01781039

KCLE 081951Z 00000KT 10SM BKN250 08/M03 A3024 RMK AO2 SLP262 T00781033

KCLT 081952Z 25005KT 10SM SCT070 SCT095 BKN210 BKN250 21/07 A3025 RMK AO2 SLP241 T02110067

KCVG 081952Z 12006KT 10SM BKN100 OVC250 11/01 A3020 RMK AO2 SLP227 T01110006

KDCA 081952Z 31005KT 10SM FEW200 BKN250 19/01 A3023 RMK AO2 SLP236 T01890011

KDEN 081953Z 14006KT 10SM FEW090 FEW150 FEW220 05/M03 A2996 RMK AO2 SLP150 T00501033

KDFW 081953Z 28013KT 10SM -RA BKN010 OVC014 08/06 A2996 RMK AO2 RAE01B52 SLP143 P0000 T00780056 $

KDTW 081953Z COR 16004KT 7SM FEW050 OVC250 07/M01 A3023 RMK SLPNO

KEWR 081951Z 28007KT 10SM FEW250 13/M04 A3020 RMK AO2 SLP224 T01331039

KFLL 081953Z 11013G18KT 10SM SCT045 BKN055 26/16 A3019 RMK AO2 SLP223 T02610156

KIAD 081952Z 32006KT 10SM FEW140 BKN250 18/M01 A3022 RMK AO2 SLP232 T01831006

KIAH 082013Z 30015G24KT 7SM -RA BKN006 BKN030 OVC050 13/12 A2996 RMK AO2 LTG DSNT N AND NW TSE13 CB DSNT NW-N MOVG NE P0000 T01330117

KJFK 081951Z 29010KT 10SM FEW250 12/M02 A3021 RMK AO2 SLP228 T01171022 $

KLAS 081956Z 04003KT 10SM FEW250 14/M05 A3029 RMK AO2 SLP255 T01441050

KLAX 081953Z 25005KT 10SM CLR 22/00 A3024 RMK AO2 SLP241 T02170000

KLGA 081951Z 30008G16KT 10SM FEW250 11/M03 A3019 RMK AO2 SLP223 T01061033

KMCO 081953Z 14010G16KT 10SM FEW050 27/12 A3020 RMK AO2 SLP225 T02670122

KMDW 081953Z 00000KT 10SM FEW200 BKN250 06/M03 A3019 RMK AO2 SLP231 T00561033

KMEM 081954Z 17012KT 10SM BKN045 OVC060 21/17 A2998 RMK AO2 SLP150 T02060167 $

KMIA 081953Z 07012KT 10SM BKN050 26/14 A3019 RMK AO2 SLP224 T02610144 $

KMSP 081953Z 18007G22KT 10SM CLR 06/M02 A3004 RMK AO2 SLP182 T00611022

KORD 081951Z 18003KT 10SM SCT230 BKN250 07/M03 A3018 RMK AO2 SLP224 T00671033

KPDX 081953Z 06004KT 10SM FEW019 BKN110 09/04 A3054 RMK AO2 SLP340 T00940044

KPHL 081954Z 30009KT 10SM SCT250 14/M03 A3024 RMK AO2 SLP239 T01391028

KPHX 081951Z VRB04KT 10SM FEW180 SCT270 18/M06 A3022 RMK AO2 SLP228 T01831056

KPIT 081951Z COR 20004KT 10SM OVC250 08/M02 A3026 RMK T00821020

KSAN 081951Z 29006KT 10SM FEW250 20/01 A3023 RMK AO2 SLP238 T02000006

KSEA 081953Z 23007KT 10SM SCT017 BKN030 BKN120 BKN250 07/02 A3051 RMK AO2 SLP339 T00720022

KSFO 081956Z 04005KT 10SM FEW250 12/09 A3038 RMK AO2 SLP286 T01220089

KSLC 082028Z 33012KT 10SM BKN065 BKN200 06/M02 A3025 RMK AO2 WSHFT 2008 T00561017

KSTL 081951Z 10007KT 9SM -RA OVC024 07/01 A3009 RMK AO2 SLP195 P0000 T00720011 $

KTPA 081953Z 16009KT 10SM CLR 27/13 A3018 RMK AO2 SLP220 T02720128